Time;durP1;ratioP1;P1;durP2;ratioP2;P2;SDS_P1;SDS_P2;PMS_P1;PMS_P2;Temp;Humidity;BMP_temperature;BMP_pressure;BME280_temperature;BME280_humidity;BME280_pressure;Samples;Min_cycle;Max_cycle;Signal;HPM_P1;HPM_P2
2022/06/22 00:01:19;;;;;;;7.63;6.83;;;13.40;99.90;;;;;;4948762;29;20209;-81
2022/06/22 00:03:49;;;;;;;9.80;7.17;;;13.40;99.90;;;;;;4949238;28;20228;-78
2022/06/22 00:06:23;;;;;;;12.10;7.83;;;13.40;99.90;;;;;;4934058;29;20673;-79
2022/06/22 00:08:53;;;;;;;8.87;6.90;;;13.40;99.90;;;;;;4930943;29;20226;-81
2022/06/22 00:11:22;;;;;;;7.70;6.90;;;13.40;99.90;;;;;;4930041;29;20236;-80
2022/06/22 00:13:52;;;;;;;8.20;6.57;;;13.40;99.90;;;;;;4930015;29;20680;-81
2022/06/22 00:16:24;;;;;;;8.70;7.90;;;13.30;99.90;;;;;;4930075;29;20206;-80
2022/06/22 00:18:52;;;;;;;10.40;9.07;;;13.30;99.90;;;;;;4931087;29;20198;-79
2022/06/22 00:21:23;;;;;;;9.77;8.30;;;13.30;99.90;;;;;;4929669;29;20591;-81
2022/06/22 00:23:53;;;;;;;12.90;9.63;;;13.30;99.90;;;;;;4940894;29;20231;-79
2022/06/22 00:26:31;;;;;;;10.10;7.80;;;13.30;99.90;;;;;;4944662;29;20225;-81
2022/06/22 00:29:18;;;;;;;8.73;7.20;;;13.20;99.90;;;;;;4929831;29;20646;-80
2022/06/22 00:31:59;;;;;;;7.20;6.50;;;13.20;99.90;;;;;;4929855;29;20212;-82
2022/06/22 00:34:28;;;;;;;6.50;5.90;;;13.10;99.90;;;;;;4930077;29;20210;-82
2022/06/22 00:36:59;;;;;;;7.87;6.00;;;13.10;99.90;;;;;;4931160;29;20198;-80
2022/06/22 00:39:32;;;;;;;9.67;6.93;;;13.00;99.90;;;;;;4931020;29;20202;-81
2022/06/22 00:42:14;;;;;;;7.20;6.50;;;13.00;99.90;;;;;;4930222;29;20205;-81
2022/06/22 00:44:46;;;;;;;8.07;7.13;;;12.90;99.90;;;;;;4930282;29;20292;-81
2022/06/22 00:47:24;;;;;;;7.77;7.07;;;12.90;99.90;;;;;;4929972;29;20234;-81
2022/06/22 00:49:51;;;;;;;7.43;6.60;;;12.90;99.90;;;;;;4929652;29;20610;-81
2022/06/22 00:52:26;;;;;;;7.50;6.80;;;12.80;99.90;;;;;;4929324;29;20202;-81
2022/06/22 00:54:53;;;;;;;9.33;8.33;;;12.80;99.90;;;;;;4930549;29;20614;-81
2022/06/22 00:57:25;;;;;;;9.20;8.40;;;12.80;99.90;;;;;;4930027;29;20206;-80
2022/06/22 00:59:56;;;;;;;8.40;7.03;;;12.80;99.90;;;;;;4929934;29;20289;-80
2022/06/22 01:02:31;;;;;;;8.00;7.20;;;12.70;99.90;;;;;;4929461;29;20231;-81
2022/06/22 01:05:07;;;;;;;8.40;7.33;;;12.70;99.90;;;;;;4929115;29;20541;-83
2022/06/22 01:07:43;;;;;;;7.70;6.93;;;12.70;99.90;;;;;;4929101;29;20253;-78
2022/06/22 01:10:16;;;;;;;6.53;5.90;;;12.60;99.90;;;;;;4928969;29;20253;-77
2022/06/22 01:12:51;;;;;;;7.80;6.93;;;12.60;99.90;;;;;;4929947;29;20208;-80
2022/06/22 01:15:23;;;;;;;7.40;6.60;;;12.60;99.90;;;;;;4929182;29;20198;-80
2022/06/22 01:17:57;;;;;;;7.77;7.00;;;12.50;99.90;;;;;;4929143;29;20209;-78
2022/06/22 01:20:32;;;;;;;8.30;6.57;;;12.50;99.90;;;;;;4929892;29;20210;-76
2022/06/22 01:23:32;;;;;;;8.70;7.80;;;12.40;99.90;;;;;;4930094;29;20201;-76
2022/06/22 01:26:09;;;;;;;9.90;8.90;;;12.40;99.90;;;;;;4939569;29;20213;-80
2022/06/22 01:28:38;;;;;;;11.27;8.10;;;12.30;99.90;;;;;;4948825;29;20204;-79
2022/06/22 01:31:12;;;;;;;8.27;7.17;;;12.30;99.90;;;;;;4934625;29;20220;-81
2022/06/22 01:33:42;;;;;;;8.70;7.90;;;12.30;99.90;;;;;;4929658;29;20768;-78
2022/06/22 01:36:22;;;;;;;10.43;9.33;;;12.30;99.90;;;;;;4928530;29;20905;-79
2022/06/22 01:38:50;;;;;;;12.80;11.43;;;12.30;99.90;;;;;;4929106;29;20228;-77
2022/06/22 01:41:29;;;;;;;11.70;10.47;;;12.30;99.90;;;;;;4928141;29;20213;-80
2022/06/22 01:44:04;;;;;;;11.80;10.07;;;12.30;99.90;;;;;;4929819;29;20888;-79
2022/06/22 01:46:39;;;;;;;12.93;10.93;;;12.20;99.90;;;;;;4928653;29;20225;-79
2022/06/22 01:49:12;;;;;;;10.47;8.97;;;12.20;99.90;;;;;;4929015;29;20202;-79
2022/06/22 01:51:44;;;;;;;8.63;7.77;;;12.10;99.90;;;;;;4928750;29;20202;-77
2022/06/22 01:54:17;;;;;;;8.10;7.30;;;12.10;99.90;;;;;;4932872;29;20511;-78
2022/06/22 01:56:51;;;;;;;8.43;7.63;;;12.00;99.90;;;;;;4947905;29;20684;-80
2022/06/22 01:59:27;;;;;;;7.73;6.90;;;12.00;99.90;;;;;;4936671;29;20207;-79
2022/06/22 02:01:58;;;;;;;8.83;7.93;;;12.00;99.90;;;;;;4932478;29;20201;-80
2022/06/22 02:04:33;;;;;;;7.97;6.50;;;11.90;99.90;;;;;;4932436;29;20312;-82
2022/06/22 02:10:04;;;;;;;9.13;8.23;;;11.90;99.90;;;;;;4952155;29;20617;-80
2022/06/22 02:12:37;;;;;;;9.03;8.13;;;11.80;99.90;;;;;;4952285;29;20197;-80
2022/06/22 02:15:14;;;;;;;8.43;7.53;;;11.80;99.90;;;;;;4952046;29;20256;-79
2022/06/22 02:17:45;;;;;;;7.27;6.67;;;11.80;99.90;;;;;;4949436;29;20285;-79
2022/06/22 02:20:28;;;;;;;7.60;6.90;;;11.80;99.90;;;;;;4935669;29;20213;-79
2022/06/22 02:23:01;;;;;;;8.13;7.33;;;11.80;99.90;;;;;;4932784;29;20200;-79
2022/06/22 02:25:32;;;;;;;7.83;7.07;;;11.80;99.90;;;;;;4933079;29;20198;-78
2022/06/22 02:27:58;;;;;;;10.40;7.97;;;11.70;99.90;;;;;;4931908;29;20230;-77
2022/06/22 02:30:27;;;;;;;11.47;8.63;;;11.70;99.90;;;;;;4932550;29;20750;-79
2022/06/22 02:32:55;;;;;;;8.30;7.50;;;11.70;99.90;;;;;;4945003;29;20213;-80
2022/06/22 02:35:22;;;;;;;8.97;7.53;;;11.70;99.90;;;;;;4950697;29;20609;-79
2022/06/22 02:37:55;;;;;;;7.83;7.03;;;11.70;99.90;;;;;;4932553;29;20213;-79
2022/06/22 02:40:26;;;;;;;10.27;8.07;;;11.70;99.90;;;;;;4931706;29;20656;-77
2022/06/22 02:45:55;;;;;;;8.17;7.37;;;11.70;99.90;;;;;;4891159;29;20650;-77
2022/06/22 02:48:26;;;;;;;8.33;7.37;;;11.70;99.90;;;;;;4890876;29;20258;-79
2022/06/22 02:51:00;;;;;;;8.53;7.73;;;11.60;99.90;;;;;;4910957;29;20670;-79
2022/06/22 02:53:33;;;;;;;9.10;8.20;;;11.60;99.90;;;;;;4934166;29;20209;-79
2022/06/22 02:56:01;;;;;;;10.60;9.50;;;11.50;99.90;;;;;;4950374;29;20904;-80
2022/06/22 02:58:30;;;;;;;9.97;8.93;;;11.50;99.90;;;;;;4948174;29;20217;-80
2022/06/22 03:01:02;;;;;;;9.13;8.23;;;11.50;99.90;;;;;;4931409;29;20321;-79
2022/06/22 03:03:29;;;;;;;7.87;7.07;;;11.40;99.90;;;;;;4931378;29;20232;-80
2022/06/22 03:05:57;;;;;;;8.53;7.50;;;11.40;99.90;;;;;;4943233;29;20251;-79
2022/06/22 03:08:26;;;;;;;7.07;6.37;;;11.40;99.90;;;;;;4950436;29;20626;-77
2022/06/22 03:10:56;;;;;;;8.27;7.47;;;11.30;99.90;;;;;;4949238;28;20300;-79
2022/06/22 03:13:27;;;;;;;9.20;7.63;;;11.30;99.90;;;;;;4950764;29;20206;-80
2022/06/22 03:15:54;;;;;;;9.43;8.00;;;11.40;99.90;;;;;;4949492;29;20219;-79
2022/06/22 03:18:26;;;;;;;9.63;8.00;;;11.30;99.90;;;;;;4950688;29;20208;-80
2022/06/22 03:20:58;;;;;;;11.10;9.10;;;11.30;99.90;;;;;;4950505;29;21052;-79
2022/06/22 03:23:28;;;;;;;10.30;9.13;;;11.30;99.90;;;;;;4948935;29;20217;-79
2022/06/22 03:26:01;;;;;;;9.40;8.50;;;11.30;99.90;;;;;;4950694;29;20235;-79
2022/06/22 03:28:34;;;;;;;10.40;8.57;;;11.30;99.90;;;;;;4948741;29;20239;-80
2022/06/22 03:31:06;;;;;;;8.80;7.90;;;11.30;99.90;;;;;;4930245;29;20892;-79
2022/06/22 03:33:40;;;;;;;9.30;8.17;;;11.30;99.90;;;;;;4931126;29;20807;-80
2022/06/22 03:36:13;;;;;;;10.40;9.30;;;11.30;99.90;;;;;;4930709;29;20206;-81
2022/06/22 03:38:44;;;;;;;8.80;7.90;;;11.30;99.90;;;;;;4930650;29;20303;-80
2022/06/22 03:41:15;;;;;;;9.37;7.97;;;11.30;99.90;;;;;;4930264;29;20221;-79
2022/06/22 03:43:47;;;;;;;9.97;8.50;;;11.30;99.90;;;;;;4930259;29;20654;-79
2022/06/22 03:46:18;;;;;;;7.60;6.77;;;11.30;99.90;;;;;;4930431;29;20213;-80
2022/06/22 03:48:53;;;;;;;8.57;7.67;;;11.30;99.90;;;;;;4940368;29;20224;-80
2022/06/22 03:51:25;;;;;;;9.47;8.50;;;11.30;99.90;;;;;;4949620;29;20719;-79
2022/06/22 03:53:58;;;;;;;9.93;8.93;;;11.20;99.90;;;;;;4950162;29;20208;-81
2022/06/22 03:56:30;;;;;;;11.10;9.90;;;11.20;99.90;;;;;;4948937;29;20459;-79
2022/06/22 03:59:00;;;;;;;9.10;8.20;;;11.30;99.90;;;;;;4949689;29;20194;-80
2022/06/22 04:01:27;;;;;;;9.87;7.93;;;11.20;99.90;;;;;;4948341;29;20205;-79
2022/06/22 04:03:57;;;;;;;7.33;6.67;;;11.20;99.90;;;;;;4949579;28;20668;-80
2022/06/22 04:06:30;;;;;;;8.37;7.00;;;11.30;99.90;;;;;;4942925;29;20252;-80
2022/06/22 04:08:57;;;;;;;7.27;6.57;;;11.20;99.90;;;;;;4929806;29;20580;-80
2022/06/22 04:11:27;;;;;;;8.83;7.93;;;11.30;99.90;;;;;;4930511;29;20288;-80
2022/06/22 04:14:02;;;;;;;10.03;7.93;;;11.30;99.90;;;;;;4929751;29;20206;-79
2022/06/22 04:16:34;;;;;;;13.03;10.73;;;11.30;99.90;;;;;;4930940;29;20272;-80
2022/06/22 04:19:07;;;;;;;12.00;9.70;;;11.40;99.90;;;;;;4929952;29;20214;-80
2022/06/22 04:21:44;;;;;;;9.00;8.07;;;11.50;99.90;;;;;;4929773;29;20221;-79
2022/06/22 04:24:15;;;;;;;12.23;10.97;;;11.60;99.90;;;;;;4929873;29;20242;-80
2022/06/22 04:26:45;;;;;;;11.00;10.00;;;11.80;99.90;;;;;;4929651;29;20198;-79
2022/06/22 04:29:16;;;;;;;11.20;9.83;;;12.00;99.90;;;;;;4929575;29;20205;-80
2022/06/22 04:31:52;;;;;;;14.60;12.57;;;12.10;99.90;;;;;;4930374;29;20213;-79
2022/06/22 04:34:30;;;;;;;11.80;9.50;;;12.30;99.90;;;;;;4929749;29;20245;-80
2022/06/22 04:36:59;;;;;;;11.13;9.13;;;12.40;99.90;;;;;;4930093;29;20202;-80
2022/06/22 04:39:31;;;;;;;10.63;8.70;;;12.40;99.90;;;;;;4930371;29;20216;-76
2022/06/22 04:42:00;;;;;;;8.50;7.60;;;12.50;99.90;;;;;;4929429;29;20210;-77
2022/06/22 04:44:30;;;;;;;9.80;8.80;;;12.40;99.90;;;;;;4929374;29;20320;-75
2022/06/22 04:47:13;;;;;;;9.60;8.30;;;12.50;99.90;;;;;;4928884;29;20305;-77
2022/06/22 04:49:50;;;;;;;9.00;8.10;;;12.50;99.90;;;;;;4929526;29;20642;-80
2022/06/22 04:52:25;;;;;;;11.57;10.47;;;12.50;99.90;;;;;;4946178;29;20517;-78
2022/06/22 04:54:56;;;;;;;10.77;9.43;;;12.60;99.90;;;;;;4946741;29;20701;-76
2022/06/22 04:57:29;;;;;;;13.07;10.93;;;12.70;99.90;;;;;;4948376;29;20193;-79
2022/06/22 04:59:57;;;;;;;15.27;12.00;;;12.80;99.90;;;;;;4948371;29;20201;-78
2022/06/22 05:02:27;;;;;;;15.43;11.60;;;12.90;99.90;;;;;;4946307;29;20584;-75
2022/06/22 05:04:59;;;;;;;11.47;10.37;;;13.20;99.90;;;;;;4948632;28;20451;-75
2022/06/22 05:07:38;;;;;;;16.37;12.67;;;13.40;99.90;;;;;;4948128;29;20615;-80
2022/06/22 05:10:11;;;;;;;13.00;9.53;;;13.70;99.90;;;;;;4947289;29;20205;-77
2022/06/22 05:12:46;;;;;;;12.43;9.40;;;14.00;99.90;;;;;;4947911;29;20227;-78
2022/06/22 05:15:20;;;;;;;11.07;9.57;;;14.40;99.90;;;;;;4948535;29;20733;-79
2022/06/22 05:17:48;;;;;;;10.70;9.03;;;14.90;99.90;;;;;;4929295;29;20202;-79
2022/06/22 05:20:23;;;;;;;9.10;7.53;;;15.30;99.90;;;;;;4928149;29;20229;-81
2022/06/22 05:22:53;;;;;;;8.95;7.32;;;15.80;99.90;;;;;;4936789;29;20216;-79
2022/06/22 05:25:21;;;;;;;8.52;6.38;;;16.30;99.90;;;;;;4948013;29;20205;-79
2022/06/22 05:27:56;;;;;;;8.32;6.25;;;16.80;99.90;;;;;;4942092;29;20304;-79
2022/06/22 05:30:23;;;;;;;7.82;5.57;;;17.20;99.90;;;;;;4929125;29;20205;-78
2022/06/22 05:32:55;;;;;;;6.20;5.28;;;17.60;99.90;;;;;;4938859;29;20236;-80
2022/06/22 05:35:35;;;;;;;8.07;4.55;;;18.00;99.90;;;;;;4948513;28;20665;-79
2022/06/22 05:38:06;;;;;;;7.15;4.35;;;18.30;99.90;;;;;;4945904;29;20260;-79
2022/06/22 05:40:35;;;;;;;7.70;4.55;;;18.70;99.90;;;;;;4948578;29;20286;-81
2022/06/22 05:43:02;;;;;;;6.35;4.10;;;19.00;99.90;;;;;;4948750;29;20201;-79
2022/06/22 05:45:33;;;;;;;6.22;3.78;;;19.30;99.90;;;;;;4947711;29;20481;-77
2022/06/22 05:48:01;;;;;;;6.38;4.30;;;19.60;99.90;;;;;;4928952;29;20229;-80
2022/06/22 05:50:39;;;;;;;6.50;4.00;;;19.90;99.90;;;;;;4929897;29;20205;-79
2022/06/22 05:53:12;;;;;;;5.63;3.38;;;20.30;99.90;;;;;;4928412;29;20220;-80
2022/06/22 05:55:47;;;;;;;5.93;4.00;;;20.60;99.90;;;;;;4929484;29;20692;-79
2022/06/22 05:58:19;;;;;;;7.28;4.05;;;20.80;99.90;;;;;;4929244;29;20201;-79
2022/06/22 06:00:48;;;;;;;6.07;3.25;;;21.10;99.90;;;;;;4946076;29;20206;-79
2022/06/22 06:03:31;;;;;;;4.93;3.25;;;21.30;99.90;;;;;;4929693;29;20234;-78
2022/06/22 06:06:06;;;;;;;5.38;3.67;;;21.50;99.90;;;;;;4927399;29;20337;-79
2022/06/22 06:08:40;;;;;;;5.13;3.58;;;21.70;99.90;;;;;;4927855;29;20225;-76
2022/06/22 06:11:10;;;;;;;5.18;3.60;;;21.90;99.90;;;;;;4908581;29;20476;-79
2022/06/22 06:13:41;;;;;;;7.03;3.75;;;22.10;99.90;;;;;;4926658;29;20206;-78
2022/06/22 06:16:13;;;;;;;7.82;3.60;;;22.20;99.90;;;;;;4926983;29;20202;-78
2022/06/22 06:18:44;;;;;;;6.28;3.83;;;22.50;99.90;;;;;;4927721;29;20198;-78
2022/06/22 06:21:14;;;;;;;5.75;3.20;;;22.70;99.90;;;;;;4927329;29;20650;-78
2022/06/22 06:23:45;;;;;;;4.90;3.17;;;22.80;99.90;;;;;;4927680;29;20614;-80
2022/06/22 06:29:13;;;;;;;6.15;3.25;;;22.90;99.90;;;;;;4941496;29;20271;-78
2022/06/22 06:31:58;;;;;;;5.65;3.53;;;23.20;99.90;;;;;;4946851;29;20208;-79
2022/06/22 06:34:32;;;;;;;5.50;3.83;;;23.40;99.90;;;;;;4944751;29;20224;-78
2022/06/22 06:37:07;;;;;;;7.18;2.95;;;23.40;99.90;;;;;;4945603;29;20209;-79
2022/06/22 06:39:38;;;;;;;10.50;4.47;;;23.50;99.90;;;;;;4927353;29;20622;-79
2022/06/22 06:42:16;;;;;;;5.55;3.90;;;23.80;99.90;;;;;;4926231;29;20202;-79
2022/06/22 06:44:44;;;;;;;5.93;3.70;;;24.00;99.90;;;;;;4926289;29;20202;-77
2022/06/22 06:47:16;;;;;;;4.10;3.33;;;24.20;99.90;;;;;;4929680;29;20691;-77
2022/06/22 06:49:47;;;;;;;6.95;3.72;;;24.60;99.90;;;;;;4930667;29;20222;-80
2022/06/22 06:52:26;;;;;;;4.97;3.08;;;24.90;99.90;;;;;;4930408;29;20213;-79
2022/06/22 06:54:59;;;;;;;5.97;3.55;;;24.90;99.90;;;;;;4930543;29;20201;-79
2022/06/22 06:57:27;;;;;;;7.32;3.92;;;25.10;99.90;;;;;;4931026;29;20209;-80
2022/06/22 07:00:01;;;;;;;4.50;3.55;;;25.10;99.90;;;;;;4932496;29;20287;-80
2022/06/22 07:02:31;;;;;;;7.90;3.72;;;25.40;99.90;;;;;;4949026;29;20208;-79
2022/06/22 07:04:59;;;;;;;4.30;3.10;;;25.70;99.90;;;;;;4949499;28;20235;-79
2022/06/22 07:07:35;;;;;;;5.22;3.78;;;25.90;99.90;;;;;;4948069;29;20248;-78
2022/06/22 07:10:07;;;;;;;5.53;3.35;;;25.80;99.90;;;;;;4948458;29;20197;-79
2022/06/22 07:12:37;;;;;;;6.80;3.88;;;26.00;99.90;;;;;;4937262;29;20308;-80
2022/06/22 07:15:07;;;;;;;7.13;4.22;;;25.70;99.90;;;;;;4928979;29;20210;-79
2022/06/22 07:17:35;;;;;;;8.07;4.50;;;25.80;99.90;;;;;;4930683;29;20233;-78
2022/06/22 07:20:10;;;;;;;5.85;3.60;;;25.70;99.90;;;;;;4929758;29;20266;-79
2022/06/22 07:22:44;;;;;;;6.43;3.33;;;25.80;99.90;;;;;;4933434;29;20288;-79
2022/06/22 07:25:18;;;;;;;5.85;3.40;;;26.10;99.90;;;;;;4945136;29;20214;-80
2022/06/22 07:27:50;;;;;;;4.55;3.10;;;26.10;99.90;;;;;;4931058;29;20198;-82
2022/06/22 07:30:24;;;;;;;5.90;2.75;;;26.30;99.90;;;;;;4945996;29;20194;-79
2022/06/22 07:32:56;;;;;;;5.32;3.22;;;26.50;99.90;;;;;;4949365;29;20216;-79
2022/06/22 07:35:28;;;;;;;6.55;3.20;;;26.80;99.90;;;;;;4949074;29;20197;-81
2022/06/22 07:38:04;;;;;;;6.45;3.60;;;27.10;99.90;;;;;;4948067;29;20584;-80
2022/06/22 07:40:33;;;;;;;7.00;3.92;;;27.10;99.90;;;;;;4944064;29;20205;-80
2022/06/22 07:43:01;;;;;;;19.58;5.68;;;27.00;99.90;;;;;;4947591;29;20503;-81
2022/06/22 07:45:30;;;;;;;6.35;3.75;;;27.00;99.90;;;;;;4948344;29;20209;-81
2022/06/22 07:48:01;;;;;;;8.95;3.42;;;27.00;99.90;;;;;;4956025;28;20204;-80
2022/06/22 07:50:32;;;;;;;11.40;3.67;;;27.10;99.90;;;;;;4948332;28;20755;-81
2022/06/22 07:53:03;;;;;;;44.53;8.18;;;27.40;99.90;;;;;;4949327;29;20292;-81
2022/06/22 07:55:40;;;;;;;10.43;4.25;;;27.70;99.90;;;;;;4929606;29;20205;-79
2022/06/22 07:58:22;;;;;;;29.05;6.75;;;27.70;99.90;;;;;;4927827;29;20211;-82
2022/06/22 08:00:55;;;;;;;6.32;4.10;;;27.60;99.90;;;;;;4929082;29;20233;-79
2022/06/22 08:03:29;;;;;;;25.58;7.05;;;27.50;99.90;;;;;;4928809;29;20226;-80
2022/06/22 08:06:00;;;;;;;6.05;3.05;;;27.30;99.90;;;;;;4947517;29;20368;-80
2022/06/22 08:08:34;;;;;;;7.03;3.67;;;27.20;99.90;;;;;;4948231;29;20263;-80
2022/06/22 08:11:07;;;;;;;4.85;3.20;;;27.30;99.90;;;;;;4937780;29;20318;-80
2022/06/22 08:13:40;;;;;;;8.07;4.80;;;27.50;99.90;;;;;;4928317;29;20194;-81
2022/06/22 08:16:15;;;;;;;27.55;5.63;;;27.00;99.90;;;;;;4929067;29;20202;-80
2022/06/22 08:18:43;;;;;;;4.10;3.30;;;26.50;99.90;;;;;;4928246;29;20206;-80
2022/06/22 08:21:14;;;;;;;6.18;3.72;;;26.60;99.90;;;;;;4928424;29;20208;-79
2022/06/22 08:23:43;;;;;;;4.50;2.85;;;26.80;99.90;;;;;;4943501;29;20213;-80
2022/06/22 08:26:17;;;;;;;7.80;3.53;;;27.00;99.90;;;;;;4947424;29;20205;-81
2022/06/22 08:28:44;;;;;;;3.13;2.63;;;27.10;99.90;;;;;;4947765;29;20228;-80
2022/06/22 08:31:12;;;;;;;5.78;3.03;;;27.60;99.90;;;;;;4946254;29;20241;-80
2022/06/22 08:33:44;;;;;;;4.63;2.88;;;27.50;99.90;;;;;;4947283;29;20209;-79
2022/06/22 08:36:16;;;;;;;8.65;4.07;;;26.80;99.90;;;;;;4947187;29;20201;-80
2022/06/22 08:38:51;;;;;;;6.13;2.83;;;27.20;99.90;;;;;;4931541;29;20206;-82
2022/06/22 08:41:34;;;;;;;4.10;2.20;;;27.20;99.90;;;;;;4929147;29;20888;-81
2022/06/22 08:44:09;;;;;;;3.70;2.38;;;27.50;99.90;;;;;;4928983;29;20201;-78
2022/06/22 08:46:58;;;;;;;4.68;2.40;;;27.30;99.90;;;;;;4927701;29;20213;-78
2022/06/22 08:49:48;;;;;;;7.15;3.47;;;27.40;99.90;;;;;;4926581;29;20236;-79
2022/06/22 08:52:34;;;;;;;5.50;2.95;;;27.60;99.90;;;;;;4928126;29;20670;-81
2022/06/22 08:55:19;;;;;;;3.78;1.83;;;27.80;99.90;;;;;;4928262;29;20594;-79
2022/06/22 08:58:00;;;;;;;4.22;2.42;;;28.20;99.90;;;;;;4928855;29;20206;-81
2022/06/22 09:00:36;;;;;;;4.68;2.10;;;27.80;99.90;;;;;;4927965;29;20214;-82
2022/06/22 09:03:33;;;;;;;3.97;2.40;;;28.00;99.90;;;;;;4928107;29;20206;-78
2022/06/22 09:06:23;;;;;;;5.50;2.90;;;28.20;99.90;;;;;;4930314;29;20256;-78
2022/06/22 09:09:22;;;;;;;3.47;2.38;;;28.20;99.90;;;;;;4945929;28;20316;-78
2022/06/22 09:12:02;;;;;;;5.47;2.80;;;27.70;99.90;;;;;;4937676;28;20220;-79
2022/06/22 09:15:08;;;;;;;4.90;3.05;;;27.70;99.90;;;;;;4956021;28;20212;-78
2022/06/22 09:18:02;;;;;;;3.30;2.42;;;27.90;99.90;;;;;;4948093;28;20657;-78
2022/06/22 09:20:50;;;;;;;2.85;1.73;;;28.10;99.90;;;;;;4937592;29;20218;-78
2022/06/22 09:23:29;;;;;;;4.22;2.25;;;28.10;99.90;;;;;;4946229;28;20221;-78
2022/06/22 09:26:07;;;;;;;3.95;1.90;;;27.90;99.90;;;;;;4954526;28;20224;-78
2022/06/22 09:28:47;;;;;;;4.22;2.15;;;28.20;99.90;;;;;;4948064;28;20212;-78
2022/06/22 09:31:45;;;;;;;2.80;1.90;;;28.20;99.90;;;;;;4949563;28;20221;-81
2022/06/22 09:34:28;;;;;;;3.60;1.70;;;28.00;99.90;;;;;;4950901;28;20224;-78
2022/06/22 09:37:23;;;;;;;3.72;2.15;;;28.50;99.90;;;;;;4954830;28;20622;-78
2022/06/22 09:40:12;;;;;;;5.43;2.50;;;28.80;99.90;;;;;;4930257;29;20221;-78
2022/06/22 09:43:09;;;;;;;4.40;2.38;;;28.60;99.90;;;;;;4945438;29;20197;-79
2022/06/22 09:45:56;;;;;;;4.72;2.33;;;28.50;99.90;;;;;;4927815;29;20208;-79
2022/06/22 09:48:48;;;;;;;3.97;2.13;;;28.40;99.90;;;;;;4936258;29;20204;-77
2022/06/22 09:51:41;;;;;;;4.28;2.42;;;28.40;99.90;;;;;;4946110;29;20202;-79
2022/06/22 09:57:55;;;;;;;2.95;2.00;;;28.80;99.90;;;;;;4944704;29;20212;-79
2022/06/22 10:00:30;;;;;;;2.58;1.77;;;29.00;99.90;;;;;;4946462;29;20760;-80
2022/06/22 10:03:35;;;;;;;2.40;1.40;;;29.00;99.90;;;;;;4945383;28;20200;-79
2022/06/22 10:06:30;;;;;;;2.35;1.33;;;28.90;99.90;;;;;;4925423;29;20269;-79
2022/06/22 10:09:26;;;;;;;2.45;1.70;;;28.00;99.90;;;;;;4921293;29;20295;-80
2022/06/22 10:12:03;;;;;;;3.50;1.70;;;27.60;99.90;;;;;;4930978;29;20205;-78
2022/06/22 10:15:05;;;;;;;2.42;1.65;;;27.50;99.90;;;;;;4930105;29;20216;-78
2022/06/22 10:18:04;;;;;;;4.50;1.80;;;27.60;99.90;;;;;;4926988;29;20209;-79
2022/06/22 10:20:45;;;;;;;2.17;1.30;;;27.70;99.90;;;;;;4928155;29;20202;-80
2022/06/22 10:23:32;;;;;;;2.78;1.73;;;27.60;99.90;;;;;;4949704;29;20219;-82
2022/06/22 10:26:13;;;;;;;3.22;1.60;;;27.50;99.90;;;;;;4949054;29;20204;-77
2022/06/22 10:29:07;;;;;;;2.08;1.52;;;27.70;99.90;;;;;;4945470;29;20288;-82
2022/06/22 10:31:46;;;;;;;3.53;1.40;;;27.60;99.90;;;;;;4931395;29;20534;-78
2022/06/22 10:34:28;;;;;;;2.80;1.00;;;27.60;99.90;;;;;;4930214;29;20538;-79
2022/06/22 10:37:24;;;;;;;1.83;0.93;;;27.50;99.90;;;;;;4931285;29;20213;-77
2022/06/22 10:46:00;;;;;;;1.90;0.80;;;27.70;99.90;;;;;;4930801;29;20248;-80
2022/06/22 10:49:10;;;;;;;2.42;1.05;;;27.30;99.90;;;;;;4930763;29;20198;-79
2022/06/22 10:52:07;;;;;;;2.58;1.00;;;27.60;99.90;;;;;;4911884;29;20233;-79
2022/06/22 10:54:52;;;;;;;2.08;0.80;;;27.70;99.90;;;;;;4945778;29;20209;-78
2022/06/22 10:57:38;;;;;;;1.67;0.90;;;27.50;99.90;;;;;;4949405;29;20661;-80
2022/06/22 11:00:16;;;;;;;1.67;0.95;;;27.40;99.90;;;;;;4948466;29;20633;-78
2022/06/22 11:03:16;;;;;;;1.63;0.90;;;27.60;99.90;;;;;;4948127;29;20209;-78
2022/06/22 11:06:15;;;;;;;1.15;0.52;;;27.50;99.90;;;;;;4938986;29;20321;-78
2022/06/22 11:08:59;;;;;;;1.63;0.75;;;27.60;99.90;;;;;;4943966;28;20296;-78
2022/06/22 11:11:39;;;;;;;1.38;0.82;;;28.00;99.90;;;;;;4957535;28;20216;-80
2022/06/22 11:14:51;;;;;;;2.00;0.73;;;28.30;99.90;;;;;;4944518;28;20660;-79
2022/06/22 11:17:28;;;;;;;1.02;0.60;;;28.50;99.90;;;;;;4945648;28;20219;-78
2022/06/22 11:20:11;;;;;;;1.52;0.60;;;28.30;99.90;;;;;;4942427;29;20209;-79
2022/06/22 11:22:42;;;;;;;0.82;0.50;;;28.30;99.90;;;;;;4940078;29;20638;-79
2022/06/22 11:31:22;;;;;;;1.63;0.65;;;28.40;99.90;;;;;;4945771;28;20242;-78
2022/06/22 11:34:14;;;;;;;1.40;0.60;;;28.80;99.90;;;;;;4945733;28;20934;-78
2022/06/22 11:36:54;;;;;;;2.08;0.47;;;29.00;99.90;;;;;;4945822;28;20204;-79
2022/06/22 11:39:39;;;;;;;0.65;0.50;;;28.90;99.90;;;;;;4942706;28;20861;-79
2022/06/22 11:42:19;;;;;;;2.38;0.57;;;28.90;99.90;;;;;;4958348;28;20286;-78
2022/06/22 11:48:33;;;;;;;2.20;0.75;;;28.20;99.90;;;;;;4944273;28;20221;-84
2022/06/22 11:51:13;;;;;;;0.55;0.40;;;28.00;99.90;;;;;;4932388;29;20511;-83
2022/06/22 11:54:09;;;;;;;1.13;0.50;;;28.10;99.90;;;;;;4933527;29;20204;-83
2022/06/22 11:56:53;;;;;;;1.10;0.70;;;27.90;99.90;;;;;;4951036;29;20221;-80
2022/06/22 11:59:54;;;;;;;1.45;0.77;;;28.20;99.90;;;;;;4954227;29;20197;-81
2022/06/22 12:02:50;;;;;;;1.75;0.98;;;28.10;99.90;;;;;;4939214;28;20204;-81
2022/06/22 12:05:42;;;;;;;1.40;0.73;;;28.10;99.90;;;;;;4951099;29;20205;-79
2022/06/22 12:08:23;;;;;;;1.92;0.80;;;28.20;99.90;;;;;;4952551;29;20186;-79
2022/06/22 12:10:58;;;;;;;2.53;0.85;;;28.40;99.90;;;;;;4931922;29;20245;-78
2022/06/22 12:15:04;;;;;;;1.20;0.75;;;28.50;99.90;;;;;;4949082;29;20312;-79
2022/06/22 12:16:38;;;;;;;1.08;0.65;;;28.70;99.90;;;;;;4939388;29;20672;-78
2022/06/22 12:19:20;;;;;;;2.22;0.85;;;28.30;99.90;;;;;;4929102;29;20198;-79
2022/06/22 12:22:09;;;;;;;3.20;0.85;;;28.20;99.90;;;;;;4940382;29;20494;-77
2022/06/22 12:24:53;;;;;;;3.28;0.70;;;28.20;99.90;;;;;;4930109;29;20216;-76
2022/06/22 12:27:26;;;;;;;2.45;0.80;;;27.80;99.90;;;;;;4928364;29;20233;-77
2022/06/22 12:30:13;;;;;;;2.00;0.80;;;27.40;99.90;;;;;;4929213;29;20614;-81
2022/06/22 12:32:45;;;;;;;0.75;0.75;;;27.40;99.90;;;;;;4916237;29;20213;-81
2022/06/22 12:35:26;;;;;;;1.67;1.00;;;27.40;99.90;;;;;;4928438;29;20217;-82
2022/06/22 12:37:56;;;;;;;0.95;0.70;;;27.60;99.90;;;;;;4930624;29;20245;-80
2022/06/22 12:40:28;;;;;;;3.25;1.17;;;27.70;99.90;;;;;;4947141;29;20206;-79
2022/06/22 12:43:15;;;;;;;1.33;0.65;;;28.00;99.90;;;;;;4947878;28;20527;-80
2022/06/22 12:45:54;;;;;;;1.02;0.80;;;28.20;99.90;;;;;;4946286;29;20520;-79
2022/06/22 12:49:00;;;;;;;1.65;0.68;;;28.30;99.90;;;;;;4946200;29;20219;-79
2022/06/22 12:51:35;;;;;;;1.23;0.63;;;28.40;99.90;;;;;;4922928;29;20797;-78
2022/06/22 12:54:06;;;;;;;0.77;0.52;;;28.20;99.90;;;;;;4912954;29;20214;-80
2022/06/22 12:56:38;;;;;;;1.25;0.70;;;28.30;99.90;;;;;;4928086;29;20197;-80
2022/06/22 12:59:10;;;;;;;0.77;0.63;;;28.00;99.90;;;;;;4929311;29;20205;-82
2022/06/22 13:01:38;;;;;;;1.15;0.63;;;28.00;99.90;;;;;;4935586;29;20239;-82
2022/06/22 13:04:10;;;;;;;0.90;0.77;;;28.20;99.90;;;;;;4949381;28;20225;-81
2022/06/22 13:06:45;;;;;;;1.83;0.60;;;28.30;99.90;;;;;;4949612;29;20346;-82
2022/06/22 13:09:12;;;;;;;1.17;0.60;;;28.60;99.90;;;;;;4950612;29;20208;-81
2022/06/22 13:11:43;;;;;;;1.20;0.80;;;28.50;99.90;;;;;;4937754;29;20229;-85
2022/06/22 13:14:21;;;;;;;0.85;0.50;;;28.80;99.90;;;;;;4931226;29;20206;-80
2022/06/22 13:16:54;;;;;;;1.27;0.80;;;28.90;99.90;;;;;;4928365;29;20217;-76
2022/06/22 13:19:27;;;;;;;1.48;0.70;;;28.80;99.90;;;;;;4928247;29;20559;-78
2022/06/22 13:22:03;;;;;;;9.43;2.47;;;28.30;99.90;;;;;;4927380;29;20209;-82
2022/06/22 13:24:35;;;;;;;1.48;0.50;;;28.10;99.90;;;;;;4929691;29;20216;-80
2022/06/22 13:27:21;;;;;;;2.70;0.60;;;28.20;99.90;;;;;;4948981;29;20209;-80
2022/06/22 13:29:53;;;;;;;0.98;0.65;;;28.30;99.90;;;;;;4953543;29;20527;-81
2022/06/22 13:32:23;;;;;;;1.42;0.80;;;28.40;99.90;;;;;;4933417;29;20312;-80
2022/06/22 13:34:58;;;;;;;1.00;0.50;;;28.40;99.90;;;;;;4930286;29;20225;-83
2022/06/22 13:37:35;;;;;;;0.95;0.55;;;28.50;99.90;;;;;;4934439;29;20211;-81
2022/06/22 13:40:26;;;;;;;0.82;0.50;;;28.70;99.90;;;;;;4945986;29;20597;-80
2022/06/22 13:43:15;;;;;;;2.25;0.57;;;28.70;99.70;;;;;;4944841;29;20241;-80
2022/06/22 13:45:55;;;;;;;1.48;0.50;;;28.00;99.10;;;;;;4947277;29;20217;-82
2022/06/22 13:48:26;;;;;;;1.73;0.50;;;27.80;99.90;;;;;;4946453;29;20208;-81
2022/06/22 13:51:19;;;;;;;0.82;0.50;;;27.90;99.80;;;;;;4946789;29;20226;-82
2022/06/22 13:54:13;;;;;;;1.65;0.70;;;28.00;99.50;;;;;;4938548;29;20210;-79
2022/06/22 13:56:51;;;;;;;0.57;0.50;;;28.00;99.50;;;;;;4926881;29;20201;-81
2022/06/22 13:59:28;;;;;;;1.35;0.80;;;27.90;99.80;;;;;;4927206;29;20601;-81
2022/06/22 14:02:03;;;;;;;1.27;0.60;;;27.90;99.90;;;;;;4928495;29;20189;-81